createdAt,value
2023-04-30T00:00:32.186Z,9.05
2023-04-30T00:02:33.822Z,8.65
2023-04-30T00:04:35.441Z,9.20
2023-04-30T00:06:37.118Z,8.77
2023-04-30T00:08:38.705Z,9.00
2023-04-30T00:10:40.313Z,8.02
2023-04-30T00:12:41.996Z,9.05
2023-04-30T00:14:43.596Z,8.73
2023-04-30T00:16:45.238Z,8.65
2023-04-30T00:18:46.850Z,8.40
2023-04-30T00:20:48.448Z,8.07
2023-04-30T00:22:50.036Z,8.15
2023-04-30T00:24:51.989Z,8.32
2023-04-30T00:26:53.611Z,8.60
2023-04-30T00:28:55.366Z,8.18
2023-04-30T00:30:57.116Z,8.23
2023-04-30T00:32:58.715Z,8.70
2023-04-30T00:35:00.280Z,8.10
2023-04-30T00:37:01.898Z,8.65
2023-04-30T00:39:04.054Z,8.07
2023-04-30T00:41:05.908Z,8.40
2023-04-30T00:43:07.458Z,7.93
2023-04-30T00:45:09.487Z,8.75
2023-04-30T00:47:11.134Z,8.13
2023-04-30T00:49:12.856Z,8.43
2023-04-30T00:51:14.562Z,8.07
2023-04-30T00:53:17.016Z,8.38
2023-04-30T00:55:18.793Z,8.30
2023-04-30T00:57:20.745Z,8.60
2023-04-30T00:59:22.752Z,7.40
2023-04-30T01:01:25.886Z,8.00
2023-04-30T01:03:28.886Z,7.45
2023-04-30T01:05:30.930Z,7.20
2023-04-30T01:07:33.059Z,8.23
2023-04-30T01:09:34.731Z,8.80
2023-04-30T01:11:47.914Z,9.05
2023-04-30T01:14:08.197Z,8.45
2023-04-30T01:16:16.746Z,9.27
2023-04-30T01:19:12.001Z,8.73
2023-04-30T01:21:15.671Z,9.18
2023-04-30T01:23:32.170Z,8.85
2023-04-30T01:25:39.733Z,8.73
2023-04-30T01:28:07.133Z,9.05
2023-04-30T01:30:09.251Z,8.65
2023-04-30T01:32:11.524Z,8.60
2023-04-30T01:34:13.098Z,9.10
2023-04-30T01:36:52.562Z,8.68
2023-04-30T01:39:07.131Z,8.35
2023-04-30T01:41:41.526Z,8.32
2023-04-30T01:43:50.539Z,8.43
2023-04-30T01:46:07.398Z,8.18
2023-04-30T01:48:21.190Z,7.88
2023-04-30T01:50:39.851Z,7.25
2023-04-30T01:52:50.955Z,7.20
2023-04-30T01:54:56.645Z,7.45
2023-04-30T01:57:06.936Z,7.53
2023-04-30T01:59:09.233Z,7.85
2023-04-30T02:01:28.644Z,8.20
2023-04-30T02:03:30.530Z,8.35
2023-04-30T02:05:32.272Z,7.65
2023-04-30T02:07:39.641Z,9.07
2023-04-30T02:09:41.279Z,8.25
2023-04-30T02:11:42.872Z,9.43
2023-04-30T02:13:44.469Z,9.35
2023-04-30T02:15:46.080Z,9.32
2023-04-30T02:17:48.059Z,8.88
2023-04-30T02:19:49.619Z,9.15
2023-04-30T02:21:51.328Z,9.10
2023-04-30T02:23:53.222Z,8.20
2023-04-30T02:25:54.819Z,8.65
2023-04-30T02:27:56.344Z,9.20
2023-04-30T02:29:58.542Z,9.45
2023-04-30T02:32:00.874Z,9.32
2023-04-30T02:34:02.443Z,9.55
2023-04-30T02:36:04.426Z,9.77
2023-04-30T02:38:05.972Z,9.50
2023-04-30T02:40:08.250Z,8.95
2023-04-30T02:42:10.054Z,8.70
2023-04-30T02:44:12.205Z,9.15
2023-04-30T02:46:13.836Z,9.20
2023-04-30T02:48:15.931Z,9.88
2023-04-30T02:50:17.531Z,9.80
2023-04-30T02:52:19.135Z,9.93
2023-04-30T02:54:21.076Z,9.90
2023-04-30T02:56:22.740Z,9.80
2023-04-30T02:58:24.305Z,10.00
2023-04-30T03:00:26.493Z,9.77
2023-04-30T03:02:28.095Z,10.13
2023-04-30T03:04:29.702Z,9.68
2023-04-30T03:06:32.221Z,9.73
2023-04-30T03:08:33.864Z,9.45
2023-04-30T03:10:35.512Z,9.82
2023-04-30T03:12:37.214Z,10.88
2023-04-30T03:14:38.801Z,10.00
2023-04-30T03:16:41.553Z,10.15
2023-04-30T03:18:43.626Z,11.02
2023-04-30T03:20:45.302Z,9.93
2023-04-30T03:22:46.920Z,10.07
2023-04-30T03:24:48.469Z,10.32
2023-04-30T03:26:50.008Z,10.70
2023-04-30T03:28:51.608Z,10.27
2023-04-30T03:30:53.199Z,9.75
2023-04-30T03:32:54.797Z,10.80
2023-04-30T03:34:56.499Z,10.75
2023-04-30T03:36:58.538Z,10.48
2023-04-30T03:39:00.293Z,11.23
2023-04-30T03:41:01.873Z,10.20
2023-04-30T03:43:03.491Z,9.80
2023-04-30T03:45:05.477Z,10.75
2023-04-30T03:47:07.140Z,10.05
2023-04-30T03:49:08.850Z,10.27
2023-04-30T03:51:10.920Z,10.40
2023-04-30T03:53:12.512Z,9.70
2023-04-30T03:55:14.097Z,9.63
2023-04-30T03:57:15.877Z,10.20
2023-04-30T03:59:17.869Z,10.20
2023-04-30T04:01:19.497Z,10.52
2023-04-30T04:03:21.238Z,10.50
2023-04-30T04:05:22.842Z,10.05
2023-04-30T04:07:24.483Z,11.27
2023-04-30T04:09:26.261Z,10.43
2023-04-30T04:11:27.914Z,11.63
2023-04-30T04:13:29.499Z,10.80
2023-04-30T04:15:31.284Z,10.95
2023-04-30T04:17:33.048Z,11.10
2023-04-30T04:19:34.722Z,10.93
2023-04-30T04:21:36.874Z,9.60
2023-04-30T04:23:38.550Z,10.63
2023-04-30T04:25:41.725Z,10.02
2023-04-30T04:27:43.263Z,10.23
2023-04-30T04:29:44.824Z,8.95
2023-04-30T04:31:49.093Z,9.77
2023-04-30T04:33:58.142Z,9.68
2023-04-30T04:35:59.942Z,9.82
2023-04-30T04:38:01.562Z,9.93
2023-04-30T04:40:05.072Z,9.85
2023-04-30T04:42:06.715Z,8.75
2023-04-30T04:44:08.438Z,10.57
2023-04-30T04:46:12.971Z,10.73
2023-04-30T04:48:15.948Z,10.88
2023-04-30T04:50:18.198Z,11.48
2023-04-30T04:52:19.733Z,11.30
2023-04-30T04:54:21.395Z,10.85
2023-04-30T04:56:22.998Z,11.63
2023-04-30T04:58:24.664Z,11.90
2023-04-30T05:00:26.258Z,10.70
2023-04-30T05:02:27.964Z,10.07
2023-04-30T05:04:30.503Z,10.68
2023-04-30T05:06:32.256Z,10.85
2023-04-30T05:08:33.956Z,10.90
2023-04-30T05:10:35.578Z,11.25
2023-04-30T05:12:37.186Z,11.90
2023-04-30T05:14:38.837Z,10.18
2023-04-30T05:16:40.634Z,10.95
2023-04-30T05:18:42.282Z,10.18
2023-04-30T05:20:43.969Z,9.95
2023-04-30T05:22:45.543Z,9.75
2023-04-30T05:24:47.166Z,9.75
2023-04-30T05:26:48.813Z,8.95
2023-04-30T05:28:52.455Z,9.10
2023-04-30T05:30:54.194Z,9.63
2023-04-30T05:32:56.948Z,9.65
2023-04-30T05:34:58.585Z,9.52
2023-04-30T05:37:01.657Z,8.55
2023-04-30T05:39:03.308Z,9.13
2023-04-30T05:41:05.149Z,8.52
2023-04-30T05:43:06.811Z,8.82
2023-04-30T05:45:08.793Z,8.75
2023-04-30T05:47:10.571Z,9.23
2023-04-30T05:49:12.177Z,8.70
2023-04-30T05:51:14.051Z,8.57
2023-04-30T05:53:15.702Z,8.43
2023-04-30T05:55:17.397Z,9.18
2023-04-30T05:57:19.039Z,8.82
2023-04-30T05:59:20.623Z,9.35
2023-04-30T06:01:23.336Z,12.35
2023-04-30T06:03:25.160Z,9.65
2023-04-30T06:05:27.075Z,9.57
2023-04-30T06:07:28.814Z,9.18
2023-04-30T06:09:30.478Z,9.10
2023-04-30T06:11:32.209Z,9.85
2023-04-30T06:13:33.913Z,9.45
2023-04-30T06:15:35.696Z,9.85
2023-04-30T06:17:37.568Z,10.38
2023-04-30T06:19:39.301Z,10.07
2023-04-30T06:21:41.001Z,9.68
2023-04-30T06:23:42.562Z,9.80
2023-04-30T06:25:44.194Z,13.38
2023-04-30T06:27:46.201Z,9.95
2023-04-30T06:29:47.817Z,10.18
2023-04-30T06:31:49.508Z,9.38
2023-04-30T06:33:51.254Z,9.38
2023-04-30T06:35:55.464Z,10.20
2023-04-30T06:37:57.116Z,10.43
2023-04-30T06:39:58.695Z,9.07
2023-04-30T06:42:00.418Z,10.18
2023-04-30T06:44:01.992Z,9.48
2023-04-30T06:46:04.069Z,10.25
2023-04-30T06:48:05.792Z,9.73
2023-04-30T06:50:07.722Z,9.50
2023-04-30T06:52:09.657Z,14.93
2023-04-30T06:54:11.287Z,26.08
2023-04-30T06:56:13.257Z,10.68
2023-04-30T06:58:15.026Z,11.30
2023-04-30T07:00:16.858Z,10.05
2023-04-30T07:02:21.210Z,10.40
2023-04-30T07:04:24.661Z,10.63
2023-04-30T07:06:26.847Z,11.15
2023-04-30T07:08:28.488Z,11.50
2023-04-30T07:10:31.266Z,10.98
2023-04-30T07:12:32.884Z,12.63
2023-04-30T07:14:34.477Z,12.10
2023-04-30T07:16:36.110Z,13.32
2023-04-30T07:18:38.098Z,13.65
2023-04-30T07:20:39.776Z,13.23
2023-04-30T07:22:46.197Z,12.05
2023-04-30T07:24:47.863Z,12.23
2023-04-30T07:26:49.457Z,11.88
2023-04-30T07:28:51.136Z,11.20
2023-04-30T07:30:53.221Z,10.93
2023-04-30T07:32:54.918Z,12.75
2023-04-30T07:34:56.609Z,12.77
2023-04-30T07:36:58.233Z,11.98
2023-04-30T07:38:59.893Z,14.07
2023-04-30T07:41:02.279Z,16.35
2023-04-30T07:43:05.213Z,13.68
2023-04-30T07:45:07.284Z,12.18
2023-04-30T07:47:10.032Z,11.77
2023-04-30T07:49:11.676Z,9.40
2023-04-30T07:51:13.236Z,10.40
2023-04-30T07:53:14.831Z,7.28
2023-04-30T07:55:16.680Z,8.07
2023-04-30T07:57:18.262Z,7.32
2023-04-30T07:59:21.438Z,7.00
2023-04-30T08:01:23.091Z,6.85
2023-04-30T08:03:24.769Z,6.55
2023-04-30T08:05:27.306Z,5.85
2023-04-30T08:07:28.987Z,5.50
2023-04-30T08:09:31.370Z,5.10
2023-04-30T08:11:33.000Z,4.90
2023-04-30T08:13:34.722Z,5.13
2023-04-30T08:15:37.799Z,5.18
2023-04-30T08:17:39.388Z,5.35
2023-04-30T08:19:41.061Z,4.65
2023-04-30T08:21:42.680Z,4.90
2023-04-30T08:23:44.437Z,5.10
2023-04-30T08:25:46.132Z,4.35
2023-04-30T08:27:47.687Z,4.72
2023-04-30T08:29:49.372Z,4.88
2023-04-30T08:31:51.061Z,4.93
2023-04-30T08:33:52.720Z,4.50
2023-04-30T08:35:54.580Z,4.07
2023-04-30T08:37:56.232Z,5.68
2023-04-30T08:39:58.349Z,4.38
2023-04-30T08:42:03.732Z,4.03
2023-04-30T08:44:08.216Z,3.95
2023-04-30T08:46:13.444Z,3.70
2023-04-30T08:48:16.641Z,4.07
2023-04-30T08:50:18.471Z,4.10
2023-04-30T08:52:20.599Z,3.60
2023-04-30T08:54:23.138Z,3.95
2023-04-30T08:56:25.710Z,3.42
2023-04-30T08:58:27.330Z,4.40
2023-04-30T09:00:28.994Z,4.38
2023-04-30T09:02:32.987Z,4.25
2023-04-30T09:04:34.631Z,4.00
2023-04-30T09:06:36.274Z,3.75
2023-04-30T09:08:50.752Z,3.63
2023-04-30T09:10:52.394Z,2.80
2023-04-30T09:13:07.700Z,3.45
2023-04-30T09:15:09.814Z,3.40
2023-04-30T09:17:22.153Z,3.80
2023-04-30T09:19:25.445Z,3.55
2023-04-30T09:21:35.146Z,3.38
2023-04-30T09:23:36.824Z,3.80
2023-04-30T09:25:42.625Z,3.78
2023-04-30T09:27:45.311Z,3.75
2023-04-30T09:29:47.173Z,3.47
2023-04-30T09:31:48.893Z,3.50
2023-04-30T09:33:51.053Z,3.00
2023-04-30T09:35:52.686Z,3.03
2023-04-30T09:37:54.337Z,3.92
2023-04-30T09:39:57.140Z,3.65
2023-04-30T09:42:11.558Z,3.70
2023-04-30T09:44:29.000Z,4.65
2023-04-30T09:46:32.421Z,3.92
2023-04-30T09:48:34.129Z,3.80
2023-04-30T09:50:41.887Z,3.10
2023-04-30T09:52:54.062Z,3.22
2023-04-30T09:54:55.662Z,3.08
2023-04-30T09:56:59.351Z,3.47
2023-04-30T10:01:03.581Z,3.28
2023-04-30T10:03:12.890Z,3.53
2023-04-30T10:05:14.651Z,3.08
2023-04-30T10:07:22.228Z,2.95
2023-04-30T10:09:30.896Z,3.47
2023-04-30T10:11:34.414Z,3.40
2023-04-30T10:13:44.835Z,3.65
2023-04-30T10:15:51.927Z,4.45
2023-04-30T10:17:59.851Z,3.20
2023-04-30T10:20:05.876Z,3.33
2023-04-30T10:22:08.076Z,4.35
2023-04-30T10:24:10.735Z,4.82
2023-04-30T10:26:12.898Z,5.05
2023-04-30T10:28:14.722Z,4.32
2023-04-30T10:30:16.473Z,4.55
2023-04-30T10:32:18.556Z,5.07
2023-04-30T10:34:33.505Z,4.45
2023-04-30T10:36:44.915Z,5.05
2023-04-30T10:38:48.417Z,5.00
2023-04-30T10:40:50.251Z,4.75
2023-04-30T10:42:54.724Z,5.50
2023-04-30T10:44:56.936Z,5.90
2023-04-30T10:47:02.577Z,4.88
2023-04-30T10:49:04.223Z,5.97
2023-04-30T10:51:06.291Z,5.82
2023-04-30T10:53:08.505Z,5.57
2023-04-30T10:55:10.705Z,8.23
2023-04-30T10:57:17.793Z,7.22
2023-04-30T10:59:20.158Z,5.85
2023-04-30T11:01:22.231Z,5.10
2023-04-30T11:03:25.152Z,5.80
2023-04-30T11:05:38.876Z,4.68
2023-04-30T11:07:50.582Z,4.20
2023-04-30T11:09:57.549Z,4.78
2023-04-30T11:12:03.987Z,3.70
2023-04-30T11:14:05.728Z,3.60
2023-04-30T11:16:07.480Z,4.05
2023-04-30T11:18:09.871Z,3.97
2023-04-30T11:20:19.267Z,4.00
2023-04-30T11:22:24.720Z,3.95
2023-04-30T11:24:51.993Z,3.22
2023-04-30T11:27:05.676Z,3.10
2023-04-30T11:29:07.585Z,3.20
2023-04-30T11:31:09.288Z,5.10
2023-04-30T11:33:11.932Z,3.28
2023-04-30T11:35:15.243Z,3.00
2023-04-30T11:37:22.005Z,4.82
2023-04-30T11:39:24.782Z,3.17
2023-04-30T11:41:27.486Z,3.93
2023-04-30T11:43:33.611Z,3.30
2023-04-30T11:45:35.459Z,3.75
2023-04-30T11:47:43.032Z,3.72
2023-04-30T11:49:44.713Z,3.30
2023-04-30T11:51:49.769Z,3.33
2023-04-30T11:53:53.475Z,3.05
2023-04-30T11:57:59.469Z,3.05
2023-04-30T12:00:10.055Z,2.90
2023-04-30T12:02:16.095Z,3.15
2023-04-30T12:04:19.331Z,3.25
2023-04-30T12:06:25.303Z,3.35
2023-04-30T12:08:27.225Z,3.20
2023-04-30T12:10:28.848Z,3.22
2023-04-30T12:12:31.094Z,3.50
2023-04-30T12:14:34.919Z,3.60
2023-04-30T12:16:49.546Z,3.45
2023-04-30T12:18:52.826Z,3.80
2023-04-30T12:20:55.032Z,3.50
2023-04-30T12:22:57.837Z,3.40
2023-04-30T12:25:00.297Z,4.00
2023-04-30T12:27:02.448Z,2.78
2023-04-30T12:29:05.479Z,2.72
2023-04-30T12:31:07.325Z,3.05
2023-04-30T12:33:10.750Z,3.38
2023-04-30T12:35:17.056Z,3.45
2023-04-30T12:37:18.686Z,2.80
2023-04-30T12:39:20.418Z,2.72
2023-04-30T12:41:22.926Z,2.67
2023-04-30T12:43:24.488Z,3.00
2023-04-30T12:45:55.986Z,2.72
2023-04-30T12:47:57.702Z,2.85
2023-04-30T12:49:59.391Z,3.22
2023-04-30T12:52:02.751Z,3.13
2023-04-30T12:54:04.421Z,2.95
2023-04-30T12:56:16.011Z,2.97
2023-04-30T12:58:17.729Z,3.42
2023-04-30T13:00:19.350Z,2.83
2023-04-30T13:02:24.626Z,2.60
2023-04-30T13:04:26.952Z,2.80
2023-04-30T13:06:29.303Z,2.60
2023-04-30T13:08:32.612Z,2.78
2023-04-30T13:10:36.950Z,2.50
2023-04-30T13:12:38.630Z,2.67
2023-04-30T13:14:40.215Z,3.03
2023-04-30T13:16:42.017Z,3.28
2023-04-30T13:18:44.112Z,2.63
2023-04-30T13:20:45.837Z,2.45
2023-04-30T13:22:47.746Z,2.70
2023-04-30T13:24:49.572Z,2.50
2023-04-30T13:26:51.194Z,2.90
2023-04-30T13:28:52.831Z,3.10
2023-04-30T13:30:54.424Z,3.03
2023-04-30T13:32:56.207Z,2.90
2023-04-30T13:34:58.507Z,2.80
2023-04-30T13:37:00.406Z,2.78
2023-04-30T13:39:01.960Z,3.13
2023-04-30T13:41:03.649Z,2.72
2023-04-30T13:43:05.287Z,3.10
2023-04-30T13:45:07.564Z,2.60
2023-04-30T13:47:10.344Z,3.03
2023-04-30T13:49:12.014Z,3.20
2023-04-30T13:51:13.937Z,3.13
2023-04-30T13:53:16.174Z,3.65
2023-04-30T13:55:17.900Z,3.65
2023-04-30T13:57:19.499Z,4.22
2023-04-30T13:59:21.218Z,3.05
2023-04-30T14:01:22.946Z,2.88
2023-04-30T14:03:24.678Z,2.83
2023-04-30T14:05:26.893Z,2.60
2023-04-30T14:07:28.453Z,2.55
2023-04-30T14:09:30.395Z,2.72
2023-04-30T14:11:32.436Z,2.70
2023-04-30T14:13:34.298Z,2.97
2023-04-30T14:15:35.993Z,2.70
2023-04-30T14:17:37.837Z,2.40
2023-04-30T14:19:39.619Z,2.40
2023-04-30T14:21:41.213Z,2.60
2023-04-30T14:23:46.023Z,2.60
2023-04-30T14:25:47.756Z,2.95
2023-04-30T14:27:49.426Z,2.63
2023-04-30T14:29:51.544Z,2.42
2023-04-30T14:31:53.217Z,2.95
2023-04-30T14:33:55.319Z,2.60
2023-04-30T14:35:56.945Z,2.60
2023-04-30T14:37:58.586Z,3.00
2023-04-30T14:40:01.988Z,2.70
2023-04-30T14:42:04.140Z,2.70
2023-04-30T14:44:05.833Z,2.25
2023-04-30T14:46:07.594Z,2.65
2023-04-30T14:48:09.634Z,2.58
2023-04-30T14:50:11.250Z,2.65
2023-04-30T14:52:13.831Z,2.40
2023-04-30T14:54:15.637Z,2.72
2023-04-30T14:56:17.407Z,2.60
2023-04-30T14:58:20.225Z,2.33
2023-04-30T15:00:22.033Z,2.50
2023-04-30T15:02:23.725Z,2.40
2023-04-30T15:04:25.354Z,2.45
2023-04-30T15:06:27.567Z,2.47
2023-04-30T15:08:29.198Z,2.60
2023-04-30T15:10:30.771Z,3.05
2023-04-30T15:12:32.709Z,2.65
2023-04-30T15:14:34.280Z,3.08
2023-04-30T15:16:35.869Z,2.70
2023-04-30T15:18:38.543Z,3.28
2023-04-30T15:20:40.423Z,2.83
2023-04-30T15:22:42.331Z,2.90
2023-04-30T15:24:44.322Z,3.08
2023-04-30T15:26:46.053Z,2.97
2023-04-30T15:28:47.668Z,3.45
2023-04-30T15:30:49.367Z,3.30
2023-04-30T15:32:51.053Z,2.90
2023-04-30T15:34:52.990Z,3.00
2023-04-30T15:36:54.647Z,3.40
2023-04-30T15:38:56.252Z,3.03
2023-04-30T15:40:57.889Z,2.95
2023-04-30T15:42:59.508Z,2.88
2023-04-30T15:45:01.222Z,3.25
2023-04-30T15:47:03.224Z,2.75
2023-04-30T15:49:05.035Z,2.90
2023-04-30T15:51:06.721Z,2.97
2023-04-30T15:53:09.178Z,3.03
2023-04-30T15:55:10.791Z,3.22
2023-04-30T15:57:13.145Z,3.08
2023-04-30T15:59:17.729Z,3.00
2023-04-30T16:01:23.448Z,2.70
2023-04-30T16:03:25.322Z,3.15
2023-04-30T16:05:26.970Z,3.22
2023-04-30T16:07:28.642Z,3.50
2023-04-30T16:09:31.329Z,4.30
2023-04-30T16:11:33.823Z,9.53
2023-04-30T16:13:35.553Z,13.35
2023-04-30T16:15:37.200Z,5.78
2023-04-30T16:17:39.122Z,4.70
2023-04-30T16:19:41.203Z,3.58
2023-04-30T16:21:43.585Z,4.28
2023-04-30T16:23:47.314Z,4.20
2023-04-30T16:27:51.042Z,3.60
2023-04-30T16:29:53.004Z,3.60
2023-04-30T16:31:54.968Z,3.50
2023-04-30T16:33:56.606Z,3.28
2023-04-30T16:35:58.271Z,3.42
2023-04-30T16:37:59.930Z,2.83
2023-04-30T16:40:01.678Z,3.20
2023-04-30T16:42:03.392Z,3.20
2023-04-30T16:44:05.729Z,2.85
2023-04-30T16:46:07.696Z,3.30
2023-04-30T16:48:09.397Z,2.80
2023-04-30T16:50:11.278Z,2.60
2023-04-30T16:52:12.939Z,2.80
2023-04-30T16:54:14.539Z,2.80
2023-04-30T16:56:16.198Z,2.38
2023-04-30T16:58:17.814Z,3.05
2023-04-30T17:00:19.601Z,3.22
2023-04-30T17:02:21.379Z,3.00
2023-04-30T17:04:23.049Z,3.97
2023-04-30T17:06:24.738Z,3.90
2023-04-30T17:08:26.574Z,3.47
2023-04-30T17:10:30.136Z,2.92
2023-04-30T17:12:32.374Z,3.20
2023-04-30T17:14:34.097Z,3.72
2023-04-30T17:16:35.789Z,5.88
2023-04-30T17:18:37.495Z,9.20
2023-04-30T17:20:39.349Z,9.70
2023-04-30T17:22:41.015Z,12.70
2023-04-30T17:24:42.786Z,9.25
2023-04-30T17:26:44.422Z,7.63
2023-04-30T17:28:46.094Z,11.35
2023-04-30T17:30:47.722Z,10.82
2023-04-30T17:32:49.405Z,12.00
2023-04-30T17:34:51.682Z,11.55
2023-04-30T17:36:53.276Z,9.25
2023-04-30T17:38:56.324Z,6.68
2023-04-30T17:40:58.031Z,7.05
2023-04-30T17:43:01.390Z,8.63
2023-04-30T17:45:03.054Z,8.85
2023-04-30T17:47:05.748Z,7.68
2023-04-30T17:49:07.697Z,6.85
2023-04-30T17:51:09.460Z,5.78
2023-04-30T17:53:11.142Z,5.97
2023-04-30T17:55:13.746Z,6.43
2023-04-30T17:57:15.595Z,5.82
2023-04-30T17:59:17.358Z,5.65
2023-04-30T18:01:19.465Z,5.50
2023-04-30T18:03:21.191Z,5.95
2023-04-30T18:05:22.846Z,5.90
2023-04-30T18:07:24.728Z,5.35
2023-04-30T18:09:26.354Z,5.82
2023-04-30T18:11:28.282Z,5.40
2023-04-30T18:13:30.439Z,5.53
2023-04-30T18:15:32.189Z,5.15
2023-04-30T18:17:36.494Z,5.40
2023-04-30T18:19:44.014Z,6.05
2023-04-30T18:21:45.697Z,6.00
2023-04-30T18:23:48.105Z,6.80
2023-04-30T18:25:49.835Z,6.85
2023-04-30T18:27:51.424Z,7.30
2023-04-30T18:29:52.979Z,5.28
2023-04-30T18:31:54.628Z,5.40
2023-04-30T18:33:56.554Z,5.28
2023-04-30T18:36:01.519Z,5.00
2023-04-30T18:38:05.270Z,5.18
2023-04-30T18:40:07.519Z,5.22
2023-04-30T18:42:09.620Z,5.78
2023-04-30T18:44:11.740Z,6.28
2023-04-30T18:46:13.762Z,7.35
2023-04-30T18:48:17.219Z,5.60
2023-04-30T18:50:19.622Z,5.40
2023-04-30T18:52:21.257Z,5.10
2023-04-30T18:54:22.941Z,4.82
2023-04-30T18:56:24.894Z,5.03
2023-04-30T18:58:26.589Z,4.95
2023-04-30T19:00:28.674Z,4.97
2023-04-30T19:02:30.357Z,4.57
2023-04-30T19:04:32.044Z,4.50
2023-04-30T19:06:34.575Z,4.07
2023-04-30T19:08:36.235Z,4.05
2023-04-30T19:10:38.073Z,4.05
2023-04-30T19:12:39.805Z,4.00
2023-04-30T19:14:41.796Z,4.13
2023-04-30T19:16:44.620Z,3.65
2023-04-30T19:18:46.353Z,3.55
2023-04-30T19:20:57.909Z,3.67
2023-04-30T19:22:59.569Z,4.22
2023-04-30T19:25:01.161Z,3.83
2023-04-30T19:27:04.374Z,4.00
2023-04-30T19:29:05.949Z,4.07
2023-04-30T19:31:07.670Z,4.00
2023-04-30T19:33:09.402Z,3.53
2023-04-30T19:35:11.073Z,3.47
2023-04-30T19:37:12.968Z,3.42
2023-04-30T19:39:16.090Z,3.65
2023-04-30T19:41:17.776Z,3.63
2023-04-30T19:43:20.529Z,3.80
2023-04-30T19:45:22.335Z,3.53
2023-04-30T19:47:24.175Z,3.42
2023-04-30T19:49:26.607Z,3.40
2023-04-30T19:51:28.338Z,3.20
2023-04-30T19:53:30.370Z,3.80
2023-04-30T19:55:31.996Z,3.47
2023-04-30T19:57:35.939Z,2.90
2023-04-30T19:59:37.676Z,3.35
2023-04-30T20:01:40.103Z,3.90
2023-04-30T20:03:42.347Z,3.80
2023-04-30T20:05:44.711Z,3.80
2023-04-30T20:07:46.336Z,3.53
2023-04-30T20:09:47.936Z,3.53
2023-04-30T20:11:51.297Z,4.40
2023-04-30T20:13:55.098Z,3.60
2023-04-30T20:15:56.777Z,3.60
2023-04-30T20:17:58.713Z,3.40
2023-04-30T20:20:00.340Z,3.72
2023-04-30T20:22:02.987Z,3.33
2023-04-30T20:24:05.412Z,3.38
2023-04-30T20:26:08.104Z,3.45
2023-04-30T20:28:09.803Z,3.60
2023-04-30T20:30:13.314Z,3.45
2023-04-30T20:32:14.941Z,3.70
2023-04-30T20:34:16.758Z,3.63
2023-04-30T20:36:19.558Z,3.83
2023-04-30T20:38:22.190Z,3.43
2023-04-30T20:40:24.239Z,3.63
2023-04-30T20:42:29.078Z,3.17
2023-04-30T20:44:30.739Z,3.85
2023-04-30T20:46:32.782Z,3.67
2023-04-30T20:48:35.021Z,3.25
2023-04-30T20:50:37.408Z,3.50
2023-04-30T20:52:39.020Z,3.85
2023-04-30T20:54:41.313Z,3.55
2023-04-30T20:56:45.088Z,3.90
2023-04-30T21:00:50.080Z,3.78
2023-04-30T21:02:54.017Z,3.50
2023-04-30T21:04:55.965Z,3.92
2023-04-30T21:06:57.521Z,3.50
2023-04-30T21:08:59.228Z,3.50
2023-04-30T21:11:00.823Z,3.72
2023-04-30T21:13:05.271Z,3.15
2023-04-30T21:15:08.676Z,3.13
2023-04-30T21:17:10.645Z,2.80
2023-04-30T21:19:12.611Z,3.33
2023-04-30T21:21:14.365Z,3.60
2023-04-30T21:23:15.950Z,3.45
2023-04-30T21:25:17.774Z,4.00
2023-04-30T21:27:20.208Z,3.75
2023-04-30T21:29:22.270Z,3.75
2023-04-30T21:31:24.031Z,3.60
2023-04-30T21:33:25.638Z,3.50
2023-04-30T21:35:32.898Z,3.25
2023-04-30T21:37:34.653Z,3.10
2023-04-30T21:39:36.258Z,3.53
2023-04-30T21:41:37.934Z,3.53
2023-04-30T21:43:41.437Z,3.63
2023-04-30T21:45:43.581Z,3.67
2023-04-30T21:47:47.491Z,3.17
2023-04-30T21:49:49.074Z,3.10
2023-04-30T21:51:50.611Z,3.40
2023-04-30T21:53:52.270Z,3.65
2023-04-30T21:55:53.909Z,3.40
2023-04-30T21:57:55.503Z,3.28
2023-04-30T21:59:59.351Z,3.50
2023-04-30T22:02:07.351Z,3.00
2023-04-30T22:04:16.214Z,3.63
2023-04-30T22:06:17.897Z,3.58
2023-04-30T22:08:19.651Z,3.60
2023-04-30T22:10:21.200Z,3.75
2023-04-30T22:12:25.111Z,3.55
2023-04-30T22:14:27.009Z,3.63
2023-04-30T22:16:29.273Z,3.40
2023-04-30T22:18:31.076Z,3.28
2023-04-30T22:20:32.691Z,3.72
2023-04-30T22:22:34.268Z,3.60
2023-04-30T22:24:35.871Z,3.65
2023-04-30T22:26:37.527Z,3.60
2023-04-30T22:28:39.162Z,4.03
2023-04-30T22:30:40.849Z,3.72
2023-04-30T22:32:42.411Z,3.20
2023-04-30T22:34:44.116Z,3.60
2023-04-30T22:36:46.122Z,3.38
2023-04-30T22:38:47.731Z,3.50
2023-04-30T22:40:49.289Z,3.38
2023-04-30T22:42:51.032Z,3.67
2023-04-30T22:44:52.755Z,4.00
2023-04-30T22:46:58.048Z,3.60
2023-04-30T22:49:00.751Z,3.70
2023-04-30T22:51:03.390Z,3.90
2023-04-30T22:53:05.210Z,3.58
2023-04-30T22:55:07.572Z,4.05
2023-04-30T22:57:10.724Z,3.60
2023-04-30T22:59:12.362Z,3.80
2023-04-30T23:01:14.012Z,4.35
2023-04-30T23:03:15.767Z,3.72
2023-04-30T23:05:17.410Z,3.83
2023-04-30T23:07:19.077Z,3.78
2023-04-30T23:09:20.678Z,3.88
2023-04-30T23:11:23.773Z,4.10
2023-04-30T23:13:25.445Z,3.97
2023-04-30T23:15:27.181Z,3.97
2023-04-30T23:17:28.849Z,4.05
2023-04-30T23:19:30.500Z,3.80
2023-04-30T23:21:33.692Z,4.28
2023-04-30T23:23:35.365Z,4.38
2023-04-30T23:25:37.016Z,4.20
2023-04-30T23:27:38.606Z,4.25
2023-04-30T23:29:40.232Z,4.32
2023-04-30T23:31:41.883Z,4.32
2023-04-30T23:33:43.991Z,4.45
2023-04-30T23:35:46.020Z,4.40
2023-04-30T23:37:47.676Z,4.40
2023-04-30T23:39:49.225Z,4.30
2023-04-30T23:41:52.264Z,4.75
2023-04-30T23:43:54.264Z,4.65
2023-04-30T23:45:57.303Z,4.22
2023-04-30T23:47:58.897Z,4.25
2023-04-30T23:50:00.599Z,4.28
2023-04-30T23:52:02.225Z,5.05
2023-04-30T23:54:05.341Z,4.50
2023-04-30T23:56:08.604Z,4.63
2023-04-30T23:58:10.321Z,4.55
